Time;durP1;ratioP1;P1;durP2;ratioP2;P2;SDS_P1;SDS_P2;PMS_P1;PMS_P2;Temp;Humidity;BMP_temperature;BMP_pressure;BME280_temperature;BME280_humidity;BME280_pressure;Samples;Min_cycle;Max_cycle;Signal;HPM_P1;HPM_P2
2021/06/02 00:00:25;;;;;;;2.58;1.35;;;15.80;99.90;;;;;;4966773;29;20436;-77
2021/06/02 00:02:55;;;;;;;3.03;1.40;;;15.70;99.90;;;;;;4968681;28;20027;-77
2021/06/02 00:05:41;;;;;;;;;;;15.70;99.90;;;;;;4970912;29;20392;-78
2021/06/02 00:08:11;;;;;;;3.78;0.98;;;15.60;99.90;;;;;;4948696;29;19919;-79
2021/06/02 00:10:36;;;;;;;2.78;1.30;;;15.50;99.90;;;;;;4917158;29;20047;-79
2021/06/02 00:13:02;;;;;;;3.08;1.30;;;15.50;99.90;;;;;;4933191;29;20063;-80
2021/06/02 00:15:28;;;;;;;3.53;1.23;;;15.40;99.90;;;;;;4948992;29;20028;-80
2021/06/02 00:17:54;;;;;;;2.80;1.80;;;15.30;99.90;;;;;;4948931;29;20123;-79
2021/06/02 00:20:20;;;;;;;3.80;1.60;;;15.30;99.90;;;;;;4932773;29;20107;-79
2021/06/02 00:22:46;;;;;;;4.18;1.90;;;15.30;99.90;;;;;;4948923;29;20039;-80
2021/06/02 00:25:12;;;;;;;3.13;1.73;;;15.40;99.90;;;;;;4943193;29;20060;-80
2021/06/02 00:27:40;;;;;;;3.38;1.50;;;15.40;99.90;;;;;;4929900;29;20071;-78
2021/06/02 00:30:08;;;;;;;2.95;1.40;;;15.30;99.90;;;;;;4929491;29;20077;-79
2021/06/02 00:32:35;;;;;;;3.22;1.73;;;15.40;99.90;;;;;;4929677;29;20233;-79
2021/06/02 00:35:06;;;;;;;3.65;1.48;;;15.40;99.90;;;;;;4929517;29;20176;-80
2021/06/02 00:37:33;;;;;;;3.33;1.30;;;15.30;99.90;;;;;;4913635;29;20096;-80
2021/06/02 00:40:00;;;;;;;3.05;1.67;;;15.30;99.90;;;;;;4929295;29;20127;-79
2021/06/02 00:42:30;;;;;;;2.95;1.55;;;15.20;99.90;;;;;;4929559;29;20087;-80
2021/06/02 00:44:56;;;;;;;2.83;1.60;;;15.20;99.90;;;;;;4947687;29;20051;-80
2021/06/02 00:47:24;;;;;;;3.17;1.08;;;15.20;99.90;;;;;;4950932;29;20027;-80
2021/06/02 00:49:50;;;;;;;2.95;1.73;;;15.20;99.90;;;;;;4950799;29;20035;-80
2021/06/02 00:52:16;;;;;;;3.40;2.13;;;15.10;99.90;;;;;;4965391;29;20039;-80
2021/06/02 00:54:42;;;;;;;4.47;1.58;;;15.10;99.90;;;;;;4950628;29;20559;-80
2021/06/02 00:57:10;;;;;;;2.92;1.58;;;15.10;99.90;;;;;;4950610;29;20107;-80
2021/06/02 01:00:03;;;;;;;4.88;2.38;;;15.00;99.90;;;;;;4950464;29;20036;-79
2021/06/02 01:02:31;;;;;;;3.80;1.60;;;15.00;99.90;;;;;;4950728;29;20102;-79
2021/06/02 01:04:56;;;;;;;3.47;2.55;;;15.00;99.90;;;;;;4950470;29;20027;-81
2021/06/02 01:07:23;;;;;;;6.57;2.25;;;15.00;99.90;;;;;;4954100;29;20388;-80
2021/06/02 01:09:51;;;;;;;5.55;2.33;;;15.00;99.90;;;;;;4984364;28;20077;-77
2021/06/02 01:12:21;;;;;;;4.13;2.47;;;15.00;99.90;;;;;;4969807;28;20043;-80
2021/06/02 01:14:47;;;;;;;4.95;2.55;;;15.00;99.90;;;;;;4969447;28;20028;-80
2021/06/02 01:17:18;;;;;;;4.10;2.25;;;14.90;99.90;;;;;;4969392;28;20035;-80
2021/06/02 01:19:45;;;;;;;4.40;2.70;;;15.00;99.90;;;;;;4968183;29;20090;-80
2021/06/02 01:22:10;;;;;;;4.35;2.30;;;14.90;99.90;;;;;;4969591;28;20039;-80
2021/06/02 01:24:37;;;;;;;3.97;2.30;;;14.90;99.90;;;;;;4968490;28;20034;-80
2021/06/02 01:27:05;;;;;;;4.93;2.17;;;14.90;99.90;;;;;;4950126;29;20035;-79
2021/06/02 01:29:32;;;;;;;3.33;2.00;;;14.90;99.90;;;;;;4950132;29;20039;-77
2021/06/02 01:32:19;;;;;;;3.03;1.90;;;14.90;99.90;;;;;;4949851;29;20049;-80
2021/06/02 01:35:01;;;;;;;4.43;2.80;;;14.90;99.90;;;;;;4950140;29;20031;-78
2021/06/02 01:38:03;;;;;;;5.97;2.60;;;14.90;99.90;;;;;;4949960;29;20074;-79
2021/06/02 01:41:00;;;;;;;5.32;1.92;;;14.90;99.90;;;;;;4964688;29;20062;-80
2021/06/02 01:44:03;;;;;;;3.25;1.98;;;14.80;99.90;;;;;;4964635;28;20028;-79
2021/06/02 01:46:28;;;;;;;3.80;2.95;;;14.90;99.90;;;;;;4964330;29;20099;-80
2021/06/02 01:49:15;;;;;;;4.53;2.70;;;14.90;99.90;;;;;;4964481;29;20027;-80
2021/06/02 01:52:07;;;;;;;5.40;2.60;;;14.90;99.90;;;;;;4964526;29;20488;-80
2021/06/02 01:54:54;;;;;;;4.18;2.70;;;14.90;99.90;;;;;;4949701;29;20055;-79
2021/06/02 01:57:25;;;;;;;3.50;2.53;;;14.90;99.90;;;;;;4964371;29;20040;-77
2021/06/02 02:00:10;;;;;;;4.38;2.65;;;14.80;99.90;;;;;;4949501;29;20499;-77
2021/06/02 02:02:48;;;;;;;4.72;2.63;;;14.80;99.90;;;;;;4949431;29;20552;-76
2021/06/02 02:06:00;;;;;;;6.05;2.28;;;14.70;99.90;;;;;;4964453;29;20036;-80
2021/06/02 02:08:58;;;;;;;4.93;2.50;;;14.70;99.90;;;;;;4927358;29;20051;-79
2021/06/02 02:11:40;;;;;;;4.80;2.50;;;14.70;99.90;;;;;;4927860;29;20040;-76
2021/06/02 02:14:12;;;;;;;4.32;2.60;;;14.60;99.90;;;;;;4927791;29;20044;-79
2021/06/02 02:16:59;;;;;;;5.82;3.33;;;14.60;99.90;;;;;;4927626;29;20071;-77
2021/06/02 02:19:41;;;;;;;5.22;2.47;;;14.50;99.90;;;;;;4911828;29;20131;-79
2021/06/02 02:22:26;;;;;;;6.53;3.40;;;14.50;99.90;;;;;;4928934;29;20036;-79
2021/06/02 02:25:05;;;;;;;5.95;3.45;;;14.40;99.90;;;;;;4912395;29;20509;-79
2021/06/02 02:27:53;;;;;;;4.82;2.63;;;14.30;99.90;;;;;;4927604;29;20626;-80
2021/06/02 02:30:42;;;;;;;4.60;2.58;;;14.30;99.90;;;;;;4911655;29;20067;-80
2021/06/02 02:33:35;;;;;;;4.80;3.25;;;14.20;99.90;;;;;;4911406;29;20059;-80
2021/06/02 02:36:47;;;;;;;5.28;3.30;;;14.10;99.90;;;;;;4927292;29;20061;-80
2021/06/02 02:39:27;;;;;;;5.47;3.03;;;14.00;99.90;;;;;;4873849;29;20052;-80
2021/06/02 02:42:32;;;;;;;5.38;2.85;;;14.00;99.90;;;;;;4874093;29;20078;-80
2021/06/02 02:45:09;;;;;;;6.57;3.22;;;14.00;99.90;;;;;;4870483;29;20052;-80
2021/06/02 02:47:47;;;;;;;5.65;3.00;;;13.90;99.90;;;;;;4889552;29;20063;-80
2021/06/02 02:50:15;;;;;;;5.63;3.42;;;13.90;99.90;;;;;;4874080;29;20047;-80
2021/06/02 02:53:17;;;;;;;6.63;3.75;;;13.80;99.90;;;;;;4889445;29;20060;-80
2021/06/02 02:55:50;;;;;;;6.97;3.38;;;13.80;99.90;;;;;;4874094;29;20097;-80
2021/06/02 02:58:52;;;;;;;5.25;3.85;;;13.60;99.90;;;;;;4890811;29;20033;-80
2021/06/02 03:01:24;;;;;;;7.57;3.78;;;13.50;99.90;;;;;;4877051;29;20421;-80
2021/06/02 03:04:24;;;;;;;12.15;3.92;;;13.30;99.90;;;;;;4890269;29;20037;-80
2021/06/02 03:07:01;;;;;;;6.07;4.22;;;13.40;99.90;;;;;;4889204;29;20041;-80
2021/06/02 03:09:41;;;;;;;6.88;3.58;;;13.40;99.90;;;;;;4889440;29;20045;-80
2021/06/02 03:12:32;;;;;;;5.82;3.78;;;13.40;99.90;;;;;;4881303;29;20051;-80
2021/06/02 03:15:31;;;;;;;6.35;4.00;;;13.30;99.90;;;;;;4931226;28;20063;-80
2021/06/02 03:18:19;;;;;;;5.68;4.03;;;13.30;99.90;;;;;;4930985;29;20055;-80
2021/06/02 03:21:09;;;;;;;5.70;3.63;;;13.30;99.90;;;;;;4931310;28;20040;-80
2021/06/02 03:23:58;;;;;;;6.90;4.03;;;13.40;99.90;;;;;;4962964;29;20060;-80
2021/06/02 03:26:30;;;;;;;6.47;3.58;;;13.30;99.90;;;;;;4946277;29;20107;-80
2021/06/02 03:29:09;;;;;;;5.93;3.97;;;13.40;99.90;;;;;;4947748;29;20028;-80
2021/06/02 03:31:58;;;;;;;6.10;4.20;;;13.40;99.90;;;;;;4946324;29;20040;-79
2021/06/02 03:34:48;;;;;;;4.80;3.75;;;13.40;99.90;;;;;;4962117;28;20079;-80
2021/06/02 03:37:29;;;;;;;6.38;4.07;;;13.40;99.90;;;;;;4962643;28;20124;-79
2021/06/02 03:40:01;;;;;;;7.25;4.30;;;13.30;99.90;;;;;;4966307;28;20171;-79
2021/06/02 03:42:48;;;;;;;5.57;3.72;;;13.30;99.90;;;;;;4950223;29;20066;-79
2021/06/02 03:45:38;;;;;;;5.00;3.63;;;13.30;99.90;;;;;;4931229;29;20047;-78
2021/06/02 03:48:35;;;;;;;6.18;4.10;;;13.30;99.90;;;;;;4930881;29;20091;-78
2021/06/02 03:51:16;;;;;;;7.65;3.75;;;13.30;99.90;;;;;;4915230;29;20036;-78
2021/06/02 03:53:57;;;;;;;7.18;4.60;;;13.30;99.90;;;;;;4930948;29;20088;-79
2021/06/02 03:56:57;;;;;;;8.10;5.30;;;13.40;99.90;;;;;;4930901;29;20473;-80
2021/06/02 03:59:29;;;;;;;8.40;4.88;;;13.40;99.90;;;;;;4932100;29;20043;-79
2021/06/02 04:02:04;;;;;;;7.35;4.82;;;13.30;99.90;;;;;;4930976;29;20096;-80
2021/06/02 04:04:54;;;;;;;6.68;4.28;;;13.30;99.90;;;;;;4915136;29;20036;-79
2021/06/02 04:07:50;;;;;;;5.78;4.60;;;13.30;99.90;;;;;;4934323;29;20047;-79
2021/06/02 04:10:48;;;;;;;7.70;4.53;;;13.30;99.90;;;;;;4933742;29;20043;-80
2021/06/02 04:13:37;;;;;;;7.47;4.25;;;13.30;99.90;;;;;;4923331;29;20119;-80
2021/06/02 04:16:30;;;;;;;6.03;4.35;;;13.40;99.90;;;;;;4933872;29;20032;-80
2021/06/02 04:19:00;;;;;;;6.60;4.53;;;13.40;99.90;;;;;;4933453;29;20106;-80
2021/06/02 04:21:27;;;;;;;7.32;3.88;;;13.40;99.90;;;;;;4949331;29;20047;-79
2021/06/02 04:23:55;;;;;;;7.15;4.47;;;13.50;99.90;;;;;;4949254;29;20036;-79
2021/06/02 04:26:21;;;;;;;8.27;4.75;;;13.60;99.90;;;;;;4959836;29;20035;-80
2021/06/02 04:28:48;;;;;;;7.57;5.75;;;13.80;99.90;;;;;;4984542;28;20050;-80
2021/06/02 04:31:15;;;;;;;6.13;4.80;;;13.90;99.90;;;;;;4969736;28;20043;-79
2021/06/02 04:33:43;;;;;;;7.28;5.60;;;14.10;99.90;;;;;;4969779;28;20074;-80
2021/06/02 04:36:12;;;;;;;8.88;4.85;;;14.20;99.90;;;;;;4969225;28;20086;-79
2021/06/02 04:38:39;;;;;;;6.10;5.03;;;14.30;99.90;;;;;;4969435;28;20082;-79
2021/06/02 04:41:06;;;;;;;7.65;4.95;;;14.50;99.90;;;;;;4969705;28;20023;-79
2021/06/02 04:43:36;;;;;;;8.40;4.75;;;14.70;99.90;;;;;;4984161;28;20027;-79
2021/06/02 04:46:04;;;;;;;7.40;5.13;;;15.00;99.90;;;;;;4984628;28;20063;-80
2021/06/02 04:48:30;;;;;;;4.88;3.20;;;15.20;99.90;;;;;;4983424;28;20036;-79
2021/06/02 04:51:11;;;;;;;7.65;5.22;;;15.40;99.90;;;;;;4968016;29;20086;-80
2021/06/02 04:53:55;;;;;;;7.60;5.47;;;15.50;99.90;;;;;;4967821;28;20039;-79
2021/06/02 04:56:48;;;;;;;8.68;5.30;;;15.60;99.90;;;;;;4968048;29;20090;-80
2021/06/02 04:59:38;;;;;;;8.35;5.15;;;15.70;99.90;;;;;;4969053;29;20031;-79
2021/06/02 05:02:30;;;;;;;9.98;5.35;;;15.90;99.90;;;;;;4951932;29;20035;-80
2021/06/02 05:05:13;;;;;;;7.60;5.13;;;16.00;99.90;;;;;;4969369;29;20027;-80
2021/06/02 05:07:54;;;;;;;6.88;4.68;;;16.10;99.90;;;;;;4968646;29;20074;-79
2021/06/02 05:10:45;;;;;;;6.63;4.88;;;16.30;99.90;;;;;;4968875;29;20062;-79
2021/06/02 05:13:19;;;;;;;6.53;5.65;;;16.30;99.90;;;;;;4967655;29;20039;-79
2021/06/02 05:16:03;;;;;;;7.97;5.55;;;16.50;99.90;;;;;;4967455;29;20499;-78
2021/06/02 05:19:15;;;;;;;7.72;5.70;;;16.50;99.90;;;;;;4947394;29;20058;-80
2021/06/02 05:22:05;;;;;;;9.15;5.53;;;16.60;99.90;;;;;;4948127;29;20066;-81
2021/06/02 05:25:13;;;;;;;9.68;5.78;;;16.70;99.90;;;;;;4949574;29;20027;-80
2021/06/02 05:28:14;;;;;;;7.20;4.32;;;16.70;99.90;;;;;;4949271;29;20044;-80
2021/06/02 05:31:13;;;;;;;6.22;4.65;;;16.80;99.90;;;;;;4916260;29;20109;-81
2021/06/02 05:33:59;;;;;;;7.00;4.93;;;16.90;99.90;;;;;;4932195;29;20031;-81
2021/06/02 05:36:40;;;;;;;8.55;5.05;;;17.00;99.90;;;;;;4947562;29;20627;-80
2021/06/02 05:39:09;;;;;;;6.20;4.53;;;17.10;99.90;;;;;;4931857;29;20048;-81
2021/06/02 05:41:55;;;;;;;6.15;4.90;;;17.10;99.90;;;;;;4947991;29;20055;-80
2021/06/02 05:44:59;;;;;;;8.20;4.85;;;17.30;99.90;;;;;;4931752;29;20035;-80
2021/06/02 05:48:03;;;;;;;7.35;5.15;;;17.40;99.90;;;;;;4947574;29;20040;-80
2021/06/02 05:50:46;;;;;;;7.40;5.20;;;17.60;99.90;;;;;;4925503;29;20040;-79
2021/06/02 05:53:17;;;;;;;6.22;4.25;;;17.80;99.90;;;;;;4935731;29;20062;-79
2021/06/02 05:55:58;;;;;;;7.43;5.13;;;18.10;99.90;;;;;;4947417;29;20031;-80
2021/06/02 05:58:45;;;;;;;8.05;4.75;;;18.30;99.90;;;;;;4947545;29;20035;-81
2021/06/02 06:01:10;;;;;;;7.63;5.15;;;18.40;99.90;;;;;;4946202;29;20126;-82
2021/06/02 06:04:07;;;;;;;7.13;5.07;;;18.60;99.90;;;;;;4947533;29;20032;-82
2021/06/02 06:07:09;;;;;;;7.72;5.43;;;18.60;99.90;;;;;;4948072;29;20031;-81
2021/06/02 06:10:13;;;;;;;8.25;5.75;;;18.70;99.90;;;;;;4948545;29;20052;-80
2021/06/02 06:13:19;;;;;;;6.47;5.18;;;18.90;99.90;;;;;;4948732;29;20040;-80
2021/06/02 06:16:24;;;;;;;6.72;4.88;;;19.20;99.90;;;;;;4931490;29;20040;-80
2021/06/02 06:19:09;;;;;;;5.55;4.40;;;19.20;99.90;;;;;;4923658;29;20047;-81
2021/06/02 06:22:13;;;;;;;7.32;5.22;;;19.30;99.90;;;;;;4947689;29;20469;-80
2021/06/02 06:25:12;;;;;;;6.65;4.35;;;19.60;99.90;;;;;;4947211;29;20035;-80
2021/06/02 06:27:44;;;;;;;6.00;4.40;;;19.70;99.90;;;;;;4948490;29;20036;-79
2021/06/02 06:30:27;;;;;;;7.63;4.57;;;20.00;99.90;;;;;;4947045;29;20311;-79
2021/06/02 06:32:54;;;;;;;6.00;4.75;;;20.20;99.90;;;;;;4947045;29;20050;-80
2021/06/02 06:35:24;;;;;;;6.50;4.15;;;20.30;99.90;;;;;;4946857;29;20480;-79
2021/06/02 06:37:51;;;;;;;8.48;4.85;;;20.40;99.90;;;;;;4946840;29;20142;-80
2021/06/02 06:40:27;;;;;;;4.78;3.80;;;20.60;99.90;;;;;;4946833;29;20036;-80
2021/06/02 06:42:55;;;;;;;5.22;3.95;;;20.70;99.90;;;;;;4948189;29;20369;-80
2021/06/02 06:45:34;;;;;;;5.82;4.13;;;20.80;99.90;;;;;;4948084;29;20461;-80
2021/06/02 06:48:09;;;;;;;5.75;3.42;;;20.90;99.90;;;;;;4948054;29;20035;-80
2021/06/02 06:50:35;;;;;;;3.75;3.22;;;21.10;99.90;;;;;;4946795;29;20059;-79
2021/06/02 06:53:06;;;;;;;4.72;3.72;;;21.20;99.90;;;;;;4947975;29;20044;-80
2021/06/02 06:55:32;;;;;;;4.97;3.88;;;21.30;99.90;;;;;;4947992;29;20070;-79
2021/06/02 06:57:59;;;;;;;6.25;4.10;;;21.30;99.90;;;;;;4946565;29;20066;-80
2021/06/02 07:00:26;;;;;;;4.15;3.50;;;21.30;99.90;;;;;;4947982;29;20032;-80
2021/06/02 07:02:52;;;;;;;4.05;3.53;;;21.60;99.90;;;;;;4948398;29;20035;-81
2021/06/02 07:08:26;;;;;;;5.80;2.83;;;22.00;99.90;;;;;;4925922;29;20056;-81
2021/06/02 07:10:51;;;;;;;3.92;3.53;;;21.80;99.90;;;;;;4926235;29;20048;-81
2021/06/02 07:13:21;;;;;;;5.18;3.33;;;21.90;99.90;;;;;;4926434;29;20048;-80
2021/06/02 07:15:46;;;;;;;4.72;3.63;;;22.20;99.90;;;;;;4926442;29;20158;-81
2021/06/02 07:18:18;;;;;;;5.15;3.30;;;22.30;99.90;;;;;;4926269;29;20064;-79
2021/06/02 07:20:44;;;;;;;4.85;3.55;;;21.90;99.90;;;;;;4910379;29;20055;-80
2021/06/02 07:23:10;;;;;;;5.63;3.58;;;22.10;99.90;;;;;;4910391;29;20064;-80
2021/06/02 07:25:36;;;;;;;7.22;3.42;;;22.40;99.90;;;;;;4910344;29;20103;-80
2021/06/02 07:28:08;;;;;;;4.93;3.10;;;22.50;99.90;;;;;;4910332;29;20051;-81
2021/06/02 07:30:34;;;;;;;4.97;2.70;;;22.60;99.90;;;;;;4926495;29;20170;-80
2021/06/02 07:32:59;;;;;;;4.63;2.97;;;22.70;99.90;;;;;;4910274;29;20056;-81
2021/06/02 07:35:25;;;;;;;5.20;3.10;;;22.80;99.90;;;;;;4910398;29;20036;-79
2021/06/02 07:37:51;;;;;;;3.80;2.50;;;23.00;99.90;;;;;;4925971;29;20048;-80
2021/06/02 07:40:17;;;;;;;4.93;3.22;;;23.30;99.90;;;;;;4910338;29;20096;-81
2021/06/02 07:42:43;;;;;;;3.80;2.72;;;23.20;99.90;;;;;;4910232;29;20031;-81
2021/06/02 07:45:10;;;;;;;4.35;2.67;;;23.50;99.90;;;;;;4905244;29;20058;-81
2021/06/02 07:47:35;;;;;;;5.07;2.72;;;23.50;99.90;;;;;;4927090;29;20036;-79
2021/06/02 07:50:01;;;;;;;5.47;2.80;;;23.70;99.90;;;;;;4927114;29;20040;-82
2021/06/02 07:52:27;;;;;;;5.50;2.55;;;23.70;99.90;;;;;;4927008;29;20048;-81
2021/06/02 07:54:53;;;;;;;2.45;1.98;;;23.90;99.90;;;;;;4911287;29;20084;-81
2021/06/02 07:57:18;;;;;;;3.05;1.30;;;24.20;99.90;;;;;;4928279;29;20125;-82
2021/06/02 07:59:44;;;;;;;2.92;1.73;;;24.40;99.90;;;;;;4911423;29;20525;-80
2021/06/02 08:02:09;;;;;;;3.58;1.83;;;24.30;99.90;;;;;;4928451;29;20032;-80
2021/06/02 08:04:35;;;;;;;2.65;2.00;;;24.20;99.90;;;;;;4928404;29;20137;-81
2021/06/02 08:07:01;;;;;;;2.97;1.35;;;24.10;99.90;;;;;;4927992;29;20032;-81
2021/06/02 08:09:28;;;;;;;3.00;1.73;;;24.20;99.90;;;;;;4927879;29;20056;-81
2021/06/02 08:11:53;;;;;;;4.28;1.92;;;24.30;99.90;;;;;;4928130;29;20048;-81
2021/06/02 08:14:19;;;;;;;3.33;1.73;;;24.30;99.90;;;;;;4911302;29;20032;-81
2021/06/02 08:16:45;;;;;;;4.50;2.13;;;24.30;99.90;;;;;;4928142;29;20024;-82
2021/06/02 08:19:11;;;;;;;2.10;1.17;;;24.40;99.90;;;;;;4926784;29;20047;-81
2021/06/02 08:21:38;;;;;;;3.42;1.35;;;24.60;99.90;;;;;;4926626;29;20060;-81
2021/06/02 08:24:04;;;;;;;2.90;1.23;;;24.80;99.90;;;;;;4930087;29;20100;-80
2021/06/02 08:26:36;;;;;;;2.10;0.93;;;24.90;99.90;;;;;;4947340;29;20024;-81
2021/06/02 08:29:03;;;;;;;2.08;0.80;;;24.90;99.90;;;;;;4950651;29;20028;-81
2021/06/02 08:31:29;;;;;;;4.35;0.80;;;25.10;99.90;;;;;;4949222;29;20084;-79
2021/06/02 08:33:55;;;;;;;2.15;1.20;;;25.50;99.90;;;;;;4950495;29;20036;-80
2021/06/02 08:36:20;;;;;;;1.77;0.57;;;25.10;99.90;;;;;;4950376;29;20023;-80
2021/06/02 08:38:46;;;;;;;3.20;0.70;;;25.30;99.60;;;;;;4950366;29;20032;-81
2021/06/02 08:41:12;;;;;;;3.50;1.00;;;25.80;98.20;;;;;;4950664;29;20038;-81
2021/06/02 08:43:37;;;;;;;1.65;0.50;;;25.50;97.70;;;;;;4949061;29;20039;-81
2021/06/02 08:46:04;;;;;;;1.45;0.60;;;26.00;98.40;;;;;;4949095;29;20035;-81
2021/06/02 08:48:29;;;;;;;2.15;0.57;;;26.10;96.60;;;;;;4948741;29;20039;-81
2021/06/02 08:50:55;;;;;;;2.03;0.60;;;26.10;97.10;;;;;;4950136;29;20032;-80
2021/06/02 08:53:21;;;;;;;2.42;0.60;;;25.90;97.40;;;;;;4950211;29;20054;-79
2021/06/02 08:55:47;;;;;;;1.50;0.60;;;25.90;95.30;;;;;;4950322;29;20031;-81
2021/06/02 08:58:20;;;;;;;1.38;0.60;;;26.20;95.20;;;;;;4949910;29;20067;-81
2021/06/02 09:00:47;;;;;;;3.10;0.60;;;26.10;95.30;;;;;;4950192;29;20055;-82
2021/06/02 09:03:12;;;;;;;2.88;0.50;;;26.10;95.50;;;;;;4950161;29;20095;-81
2021/06/02 09:09:27;;;;;;;1.42;0.60;;;26.30;93.20;;;;;;4925652;29;20055;-81
2021/06/02 09:11:53;;;;;;;2.40;0.50;;;26.10;93.20;;;;;;4912686;29;20055;-82
2021/06/02 09:14:26;;;;;;;1.90;0.73;;;26.20;93.00;;;;;;4897428;29;20052;-82
2021/06/02 09:16:54;;;;;;;2.55;0.50;;;26.20;92.70;;;;;;4929047;29;20063;-82
2021/06/02 09:19:35;;;;;;;1.90;0.55;;;26.20;92.90;;;;;;4912544;29;20040;-81
2021/06/02 09:22:01;;;;;;;1.75;0.50;;;26.60;93.80;;;;;;4928349;29;20067;-81
2021/06/02 09:24:51;;;;;;;1.58;0.60;;;26.70;92.90;;;;;;4912617;29;20036;-81
2021/06/02 09:27:38;;;;;;;2.85;1.02;;;26.40;91.80;;;;;;4909228;29;20037;-81
2021/06/02 09:30:05;;;;;;;1.77;0.50;;;26.10;91.90;;;;;;4893135;29;20037;-81
2021/06/02 09:32:41;;;;;;;1.75;0.50;;;26.60;92.70;;;;;;4909255;29;20111;-81
2021/06/02 09:35:07;;;;;;;1.77;0.60;;;26.60;91.00;;;;;;4909180;29;20043;-82
2021/06/02 09:37:53;;;;;;;1.05;0.43;;;26.50;93.50;;;;;;4908938;29;20036;-81
2021/06/02 09:40:21;;;;;;;1.10;0.50;;;26.90;91.80;;;;;;4909160;29;20040;-81
2021/06/02 09:42:47;;;;;;;2.47;0.50;;;26.70;88.60;;;;;;4909394;29;20410;-82
2021/06/02 09:45:14;;;;;;;1.55;0.68;;;27.00;90.00;;;;;;4919884;29;20039;-81
2021/06/02 09:47:58;;;;;;;1.20;0.40;;;27.00;88.30;;;;;;4949139;29;20040;-81
2021/06/02 09:50:36;;;;;;;1.77;0.45;;;26.90;89.10;;;;;;4949402;29;20046;-82
2021/06/02 09:53:04;;;;;;;1.95;0.45;;;26.80;88.70;;;;;;4947797;29;20084;-81
2021/06/02 09:55:41;;;;;;;3.67;0.50;;;27.10;89.40;;;;;;4949000;29;20042;-82
2021/06/02 09:58:06;;;;;;;2.10;0.40;;;27.20;88.60;;;;;;4948780;29;20095;-81
2021/06/02 10:00:36;;;;;;;1.88;0.45;;;27.80;88.20;;;;;;4949055;29;20032;-83
2021/06/02 10:03:15;;;;;;;2.70;0.50;;;27.40;89.20;;;;;;4949000;29;20055;-82
2021/06/02 10:05:54;;;;;;;1.52;0.50;;;27.40;88.00;;;;;;4931655;29;20031;-82
2021/06/02 10:08:33;;;;;;;1.13;0.55;;;27.40;86.80;;;;;;4946985;29;20086;-82
2021/06/02 10:11:17;;;;;;;2.88;0.50;;;27.20;87.20;;;;;;4948849;29;20047;-83
2021/06/02 10:13:43;;;;;;;2.40;0.57;;;27.10;88.50;;;;;;4948648;29;20040;-82
2021/06/02 10:16:09;;;;;;;1.02;0.50;;;27.40;90.20;;;;;;4948849;29;20106;-83
2021/06/02 10:18:40;;;;;;;2.85;0.50;;;27.20;87.70;;;;;;4948664;29;20062;-82
2021/06/02 10:21:08;;;;;;;1.63;0.50;;;27.30;85.30;;;;;;4948677;29;20445;-83
2021/06/02 10:23:45;;;;;;;1.77;0.50;;;27.00;82.70;;;;;;4948818;29;20496;-82
2021/06/02 10:26:13;;;;;;;1.10;0.60;;;27.10;88.50;;;;;;4948362;29;20055;-82
2021/06/02 10:28:40;;;;;;;1.50;0.40;;;27.60;88.00;;;;;;4948350;29;20323;-81
2021/06/02 10:31:07;;;;;;;1.20;0.40;;;28.10;82.90;;;;;;4948380;29;20055;-81
2021/06/02 10:33:34;;;;;;;1.38;0.40;;;27.70;86.40;;;;;;4948604;29;20099;-81
2021/06/02 10:36:02;;;;;;;1.55;0.50;;;27.90;87.20;;;;;;4946968;29;20078;-82
2021/06/02 10:38:32;;;;;;;1.52;0.40;;;27.90;83.40;;;;;;4948198;29;20404;-80
2021/06/02 10:40:59;;;;;;;1.38;0.32;;;28.20;82.70;;;;;;4948153;29;20452;-81
2021/06/02 10:43:30;;;;;;;1.65;0.32;;;29.20;78.90;;;;;;4946866;29;20043;-82
2021/06/02 10:46:01;;;;;;;0.98;0.40;;;28.80;78.50;;;;;;4947857;29;20047;-82
2021/06/02 10:48:41;;;;;;;1.25;0.30;;;28.60;80.10;;;;;;4930890;29;20059;-82
2021/06/02 10:51:22;;;;;;;1.00;0.30;;;29.20;77.90;;;;;;4946964;29;20036;-83
2021/06/02 10:54:04;;;;;;;0.70;0.30;;;29.60;74.00;;;;;;4931126;29;20050;-83
2021/06/02 10:56:30;;;;;;;1.48;0.30;;;28.50;74.10;;;;;;4947786;29;20050;-82
2021/06/02 10:58:56;;;;;;;1.92;0.30;;;28.30;79.90;;;;;;4930861;29;20465;-82
2021/06/02 11:01:21;;;;;;;1.00;0.40;;;28.20;77.80;;;;;;4946681;29;20035;-82
2021/06/02 11:04:10;;;;;;;2.85;0.35;;;28.00;81.20;;;;;;4946768;29;20031;-83
2021/06/02 11:06:41;;;;;;;2.05;0.50;;;28.90;79.30;;;;;;4947705;29;20106;-83
2021/06/02 11:09:08;;;;;;;1.00;0.40;;;28.30;80.70;;;;;;4946466;29;20036;-83
2021/06/02 11:11:39;;;;;;;1.23;0.30;;;28.50;81.30;;;;;;4930780;29;20171;-82
2021/06/02 11:14:19;;;;;;;1.35;0.40;;;28.90;79.10;;;;;;4947773;29;20067;-82
2021/06/02 11:16:49;;;;;;;2.05;0.30;;;28.70;77.40;;;;;;4947689;29;20443;-82
2021/06/02 11:19:35;;;;;;;0.70;0.30;;;28.80;75.60;;;;;;4947670;29;20065;-83
2021/06/02 11:22:02;;;;;;;0.70;0.30;;;28.60;76.10;;;;;;4947710;29;20058;-83
2021/06/02 11:24:34;;;;;;;0.82;0.32;;;28.30;70.70;;;;;;4947789;29;20030;-83
2021/06/02 11:27:12;;;;;;;1.60;0.40;;;28.40;74.20;;;;;;4928504;29;20043;-83
2021/06/02 11:29:49;;;;;;;1.00;0.30;;;28.50;73.80;;;;;;4928619;29;20056;-82
2021/06/02 11:32:19;;;;;;;2.28;0.40;;;28.80;75.50;;;;;;4928674;29;20111;-82
2021/06/02 11:34:53;;;;;;;2.22;0.30;;;29.40;74.10;;;;;;4927527;29;20046;-82
2021/06/02 11:37:25;;;;;;;0.77;0.35;;;29.50;72.90;;;;;;4928212;29;20084;-82
2021/06/02 11:39:54;;;;;;;1.75;0.40;;;28.80;75.30;;;;;;4928584;29;20028;-82
2021/06/02 11:42:42;;;;;;;2.45;0.40;;;28.90;75.30;;;;;;4928883;29;20091;-83
2021/06/02 11:45:12;;;;;;;1.20;0.30;;;29.00;73.30;;;;;;4947477;29;20036;-84
2021/06/02 11:47:46;;;;;;;1.45;0.40;;;28.50;73.00;;;;;;4946078;29;20050;-86
2021/06/02 11:50:14;;;;;;;2.95;0.50;;;28.60;71.60;;;;;;4947533;29;20062;-82
2021/06/02 11:52:44;;;;;;;0.90;0.40;;;29.10;69.80;;;;;;4947516;29;20075;-82
2021/06/02 11:55:14;;;;;;;1.40;0.40;;;29.10;74.10;;;;;;4947647;29;20046;-84
2021/06/02 11:57:45;;;;;;;1.27;0.40;;;29.00;74.60;;;;;;4947085;29;20032;-83
2021/06/02 12:00:16;;;;;;;1.35;0.30;;;29.10;70.00;;;;;;4934199;29;20110;-84
2021/06/02 12:02:44;;;;;;;2.78;0.35;;;29.00;71.30;;;;;;4949985;29;20040;-83
2021/06/02 12:05:15;;;;;;;1.50;0.30;;;29.30;71.90;;;;;;4934018;29;20031;-83
2021/06/02 12:07:49;;;;;;;0.55;0.30;;;29.20;69.50;;;;;;4949203;29;20123;-84
2021/06/02 12:10:15;;;;;;;0.85;0.30;;;29.00;70.50;;;;;;4949828;29;20031;-83
2021/06/02 12:12:43;;;;;;;1.25;0.40;;;28.80;68.00;;;;;;4949786;29;20069;-84
2021/06/02 12:15:11;;;;;;;0.77;0.30;;;29.20;71.10;;;;;;4950999;29;20067;-84
2021/06/02 12:17:37;;;;;;;0.70;0.30;;;29.20;68.90;;;;;;4949704;29;20032;-86
2021/06/02 12:20:11;;;;;;;0.73;0.30;;;29.50;68.90;;;;;;4950965;29;20028;-87
2021/06/02 12:22:37;;;;;;;0.70;0.30;;;29.00;67.50;;;;;;4950940;29;20035;-85
2021/06/02 12:25:07;;;;;;;0.68;0.38;;;28.90;68.10;;;;;;4933816;29;20034;-83
2021/06/02 12:27:40;;;;;;;1.80;0.40;;;28.90;68.40;;;;;;4950653;29;20038;-82
2021/06/02 12:30:20;;;;;;;1.98;0.30;;;28.60;67.50;;;;;;4949604;29;20035;-83
2021/06/02 12:32:47;;;;;;;1.55;0.47;;;28.80;69.00;;;;;;4949471;29;20067;-83
2021/06/02 12:35:25;;;;;;;0.80;0.40;;;28.70;67.50;;;;;;4950687;29;20027;-83
2021/06/02 12:38:04;;;;;;;1.15;0.38;;;29.00;68.00;;;;;;4949150;29;20046;-84
2021/06/02 12:40:30;;;;;;;0.85;0.40;;;29.00;69.10;;;;;;4950782;29;20067;-83
2021/06/02 12:42:55;;;;;;;1.95;0.30;;;28.70;68.50;;;;;;4949094;29;20063;-81
2021/06/02 12:45:27;;;;;;;1.00;0.40;;;29.70;66.60;;;;;;4950310;29;20040;-85
2021/06/02 12:47:52;;;;;;;1.27;0.40;;;29.40;67.60;;;;;;4950267;29;20031;-85
2021/06/02 12:50:36;;;;;;;1.25;0.30;;;29.50;67.60;;;;;;4949169;29;20052;-82
2021/06/02 12:53:02;;;;;;;1.20;0.50;;;29.20;69.30;;;;;;4949148;29;20047;-84
2021/06/02 12:55:28;;;;;;;1.45;0.40;;;29.80;67.20;;;;;;4933215;29;20039;-83
2021/06/02 12:58:06;;;;;;;2.53;0.30;;;29.70;68.00;;;;;;4933058;29;20106;-84
2021/06/02 13:00:32;;;;;;;1.02;0.40;;;29.10;69.40;;;;;;4950225;29;20106;-83
2021/06/02 13:02:58;;;;;;;1.08;0.40;;;29.60;68.00;;;;;;4948792;29;20043;-81
2021/06/02 13:05:44;;;;;;;1.85;0.40;;;29.20;69.10;;;;;;4948966;29;20059;-82
2021/06/02 13:08:11;;;;;;;1.50;0.40;;;28.60;65.50;;;;;;4928270;29;20055;-83
2021/06/02 13:10:38;;;;;;;3.55;0.40;;;28.50;66.20;;;;;;4928189;29;20083;-83
2021/06/02 13:13:06;;;;;;;1.15;0.40;;;28.50;68.00;;;;;;4912419;29;20048;-84
2021/06/02 13:15:53;;;;;;;1.48;0.40;;;28.30;66.80;;;;;;4928718;29;20060;-83
2021/06/02 13:18:29;;;;;;;1.40;0.40;;;28.20;69.40;;;;;;4912619;29;20048;-83
2021/06/02 13:20:56;;;;;;;1.02;0.30;;;28.50;70.60;;;;;;4928586;29;20039;-82
2021/06/02 13:23:34;;;;;;;1.90;0.30;;;29.30;68.20;;;;;;4928713;29;20104;-84
2021/06/02 13:26:07;;;;;;;1.60;0.38;;;29.10;67.60;;;;;;4901161;29;20533;-84
2021/06/02 13:28:47;;;;;;;1.38;0.45;;;29.20;67.70;;;;;;4878096;29;20115;-83
2021/06/02 13:31:14;;;;;;;1.17;0.40;;;28.80;66.40;;;;;;4909283;29;20047;-84
2021/06/02 13:33:45;;;;;;;1.02;0.38;;;28.80;68.70;;;;;;4893523;29;20048;-83
2021/06/02 13:36:16;;;;;;;1.15;0.40;;;29.20;68.60;;;;;;4893613;29;20032;-83